This is the latest recevied weather packets stored in our database for station/object EA1RCG-11. If no packets are shown the sender has not sent any weather packets the latest 10 day(s).
| Time | Temp. | Humidity | Pressure | Rain* | Wind** | Luminosity | Snow |
|---|---|---|---|---|---|---|---|
| 1787517424 | 22.78° C | 57% | 975.9 hPa | - | - | - | - |
| 1787515624 | 23.33° C | 56% | 975.8 hPa | - | - | - | - |
| 1787513824 | 23.89° C | 56% | 975.6 hPa | - | - | - | - |
| 1787512024 | 24.44° C | 55% | 975.4 hPa | - | - | - | - |
| 1787510224 | 25.56° C | 54% | 975.5 hPa | - | - | - | - |
| 1787508424 | 26.11° C | 53% | 975.4 hPa | - | - | - | - |
| 1787506624 | 26.67° C | 52% | 975.8 hPa | - | - | - | - |
| 1787504824 | 27.78° C | 51% | 976 hPa | - | - | - | - |
| 1787503024 | 27.78° C | 51% | 975.9 hPa | - | - | - | - |
| 1787501223 | 28.33° C | 50% | 976 hPa | - | - | - | - |
| 1787499423 | 28.89° C | 50% | 976.2 hPa | - | - | - | - |
| 1787497623 | 28.33° C | 50% | 976.5 hPa | - | - | - | - |
| 1787495823 | 29.44° C | 48% | 976.6 hPa | - | - | - | - |
| 1787494023 | 29.44° C | 48% | 976.8 hPa | - | - | - | - |
| 1787492223 | 28.33° C | 50% | 977.2 hPa | - | - | - | - |
| 1787490423 | 28.89° C | 49% | 977.6 hPa | - | - | - | - |
| 1787488622 | 28.89° C | 49% | 977.8 hPa | - | - | - | - |
| 1787486821 | 28.33° C | 49% | 977.9 hPa | - | - | - | - |
| 1787485021 | 28.89° C | 48% | 977.8 hPa | - | - | - | - |
| 1787483221 | 30° C | 47% | 978.1 hPa | - | - | - | - |
| 1787481421 | 33.33° C | 42% | 978.5 hPa | - | - | - | - |
| 1787479621 | 26.11° C | 51% | 978.5 hPa | - | - | - | - |
| 1787477821 | 26.11° C | 51% | 978.2 hPa | - | - | - | - |
| 1787476021 | 28.33° C | 48% | 977.9 hPa | - | - | - | - |
| 1787474221 | 26.67° C | 48% | 977.5 hPa | - | - | - | - |
* Rain since midnight (hover to see other rain measurements)
** Current wind speed in m/s (hover to see current wind gust speed)